MUC | München Airways

 METAR UND TAF INFORMATION

METAR FOR RJAA
ADDS - METARS form results

(0321 UTC 24 January 2019)
Data provider http://aviationweather.gov/metar/data/
 
METAR text: RJAA 240300Z 30020G31KT 260V330 9999 BLDU FEW030 08/M11 Q1012 NOSIG RMK 1CU030 A2988 5000NE-E
Conditions at: RJAA (NARITA INTL , JP) observed 0300 UTC 24 January 2019
Temperature: 8.0°C (46°F)
Dewpoint: -11.0°C (12°F) [RH = 25%]
Pressure (altimeter): 29.88 inches Hg (1012.0 mb)
Winds: from the WNW (300 degrees) at 23 MPH (20 knots; 10.3 m/s)
gusting to 36 MPH (31 knots; 15.9 m/s)
Visibility: 6 or more miles (10+ km)
Ceiling: at least 12,000 feet AGL
Clouds: few clouds at 3000 feet AGL
Weather: BLDU  (blowing dust)

METAR text: RJAA 240230Z 30016G27KT 260V330 9999 BLDU FEW030 08/M10 Q1012 NOSIG RMK 1CU030 A2990 5000E
Conditions at: RJAA (NARITA INTL , JP) observed 0230 UTC 24 January 2019
Temperature: 8.0°C (46°F)
Dewpoint: -10.0°C (14°F) [RH = 27%]
Pressure (altimeter): 29.88 inches Hg (1012.0 mb)
Winds: from the WNW (300 degrees) at 18 MPH (16 knots; 8.2 m/s)
gusting to 31 MPH (27 knots; 13.9 m/s)
Visibility: 6 or more miles (10+ km)
Ceiling: at least 12,000 feet AGL
Clouds: few clouds at 3000 feet AGL
Weather: BLDU  (blowing dust)

METAR text: RJAA 240227Z 30016G27KT 260V330 9999 BLDU FEW030 08/M11 Q1012 WS R34R RMK 1CU030 A2990 5000E
Conditions at: RJAA (NARITA INTL , JP) observed 0227 UTC 24 January 2019
Temperature: 8.0°C (46°F)
Dewpoint: -11.0°C (12°F) [RH = 25%]
Pressure (altimeter): 29.88 inches Hg (1012.0 mb)
Winds: from the WNW (300 degrees) at 18 MPH (16 knots; 8.2 m/s)
gusting to 31 MPH (27 knots; 13.9 m/s)
Visibility: 6 or more miles (10+ km)
Ceiling: at least 12,000 feet AGL
Clouds: few clouds at 3000 feet AGL
Weather: BLDU  (blowing dust)

Forecast for: RJAA (NARITA INTL , JP)
Text: TAF RJAA 232305Z 2400/2506 31016KT 9999 FEW030
Forecast period: 0000 to 0900 UTC 24 January 2019
Forecast type: FROM: standard forecast or significant change
Winds: from the NW (310 degrees) at 18 MPH (16 knots; 8.2 m/s)
Visibility: 6 or more miles 10+ km)
Ceiling: at least 12,000 feet AGL
Clouds: few clouds at 3000 feet AGL
Weather: no significant weather forecast for this period
Text: TEMPO 2401/2409 31019G31KT
Forecast period: 0100 to 0900 UTC 24 January 2019
Forecast type: TEMPORARY: The following changes expected for less than half the time period
Winds: from the NW (310 degrees) at 22 MPH (19 knots; 9.8 m/s)
gusting to 36 MPH (31 knots; 15.9 m/s)
Visibility: missing
Ceiling: unknown
Clouds: missing
Weather: no significant weather forecast for this period
Text: BECMG 2409/2411 34006KT
Forecast period: 0900 UTC 24 January 2019 to 0600 UTC 25 January 2019
Forecast type: BECOMING: Conditions expected to become as follows by 1100 UTC 24 January 2019
Winds: from the NNW (340 degrees) at 7 MPH (6 knots; 3.1 m/s)
Visibility: 6 or more miles 10+ km)
Ceiling: at least 12,000 feet AGL
Clouds: few clouds at 3000 feet AGL
Weather: no significant weather forecast for this period

 FLUGHAFENKARTE

 RUNWAY INFORMATION
Runway 16R Runway length 13123 ft Runway width 196 ft
Runway elevation 130 ft Runway displaced threshold 0 ft Runway heading 150
Runway 34L Runway length 13123 ft Runway width 196 ft
Runway elevation 139 ft Runway displaced threshold 2460 ft Runway heading 330
Runway 16L Runway length 7152 ft Runway width 196 ft
Runway elevation 135 ft Runway displaced threshold 190 ft Runway heading 150
Runway 34R Runway length 7152 ft Runway width 196 ft
Runway elevation 141 ft Runway displaced threshold 190 ft Runway heading 330

 AIRPORT FREQUENCIES
Type APP Name TOKYO APP Frequency 124.4 MHZ
Type ATIS Name ATIS Frequency 128.25 MHZ
Type CLD Name CLNC DEL Frequency 121.9 MHZ
Type DEP Name TOKYO DEP Frequency 124.2 MHZ
Type GND Name GND Frequency 121.95 MHZ
Type RMP Name RAMP Frequency 121.6 MHZ
Type TCA Name TOKYO TCA Frequency 119.45 MHZ
Type TWR Name TWR Frequency 118.2 MHZ
Type TWR Name Frequency 118.35 MHZ
Type GND Name Frequency 121.85 MHZ
Type RMP Name RAMP Frequency 121.75 MHZ
Type CLR Name CLNC DEL Frequency 121.65 MHZ
Type RDR Name TOKYO RDR Frequency 120.2 MHZ

 AIRPORT NEAR NAVIGATION AIDS
Type VOR-DME Name Narita Frequency 117900 KHZ
Type VOR-DME Name Sakura Frequency 112700 KHZ